Time;durP1;ratioP1;P1;durP2;ratioP2;P2;SDS_P1;SDS_P2;PMS_P1;PMS_P2;Temp;Humidity;BMP_temperature;BMP_pressure;BME280_temperature;BME280_humidity;BME280_pressure;Samples;Min_cycle;Max_cycle;Signal;HPM_P1;HPM_P2
2022/08/30 00:03:26;;;;;;;3.92;1.98;;;;;;;;;;5044471;28;20031;-78
2022/08/30 00:05:52;;;;;;;3.28;1.83;;;;;;;;;;5041627;28;20392;-79
2022/08/30 00:08:18;;;;;;;3.47;1.83;;;;;;;;;;5038045;28;20030;-75
2022/08/30 00:10:44;;;;;;;4.32;2.03;;;;;;;;;;5052447;28;20032;-75
2022/08/30 00:13:11;;;;;;;5.60;1.88;;;;;;;;;;5044556;28;20076;-76
2022/08/30 00:15:38;;;;;;;3.78;1.80;;;;;;;;;;5051133;28;20025;-75
2022/08/30 00:18:04;;;;;;;3.40;2.00;;;;;;;;;;5050997;28;20041;-80
2022/08/30 00:20:31;;;;;;;2.85;1.73;;;;;;;;;;5051237;28;20029;-80
2022/08/30 00:22:56;;;;;;;4.15;1.88;;;;;;;;;;5051083;28;20549;-81
2022/08/30 00:25:23;;;;;;;4.10;2.08;;;;;;;;;;5050417;28;20052;-81
2022/08/30 00:27:49;;;;;;;3.50;2.17;;;;;;;;;;5048341;28;20060;-79
2022/08/30 00:30:17;;;;;;;2.92;1.80;;;;;;;;;;5040995;28;20071;-75
2022/08/30 00:32:42;;;;;;;2.97;1.77;;;;;;;;;;5036254;28;20071;-75
2022/08/30 00:35:10;;;;;;;3.60;2.03;;;;;;;;;;5044492;28;20045;-75
2022/08/30 00:37:35;;;;;;;3.58;1.88;;;;;;;;;;5051985;28;20151;-76
2022/08/30 00:40:01;;;;;;;3.10;1.70;;;;;;;;;;5052121;28;20112;-80
2022/08/30 00:42:26;;;;;;;4.32;2.15;;;;;;;;;;5046814;28;20102;-74
2022/08/30 00:44:52;;;;;;;3.10;1.90;;;;;;;;;;5050935;28;20053;-81
2022/08/30 00:47:19;;;;;;;5.35;2.15;;;;;;;;;;5049546;28;20033;-79
2022/08/30 00:49:48;;;;;;;3.55;2.05;;;;;;;;;;5054596;28;20024;-81
2022/08/30 00:52:15;;;;;;;4.57;1.80;;;;;;;;;;5054387;28;20033;-81
2022/08/30 00:54:44;;;;;;;4.88;2.20;;;;;;;;;;5054166;28;20396;-79
2022/08/30 00:57:12;;;;;;;5.32;2.40;;;;;;;;;;5051272;28;20021;-79
2022/08/30 00:59:38;;;;;;;2.58;1.65;;;;;;;;;;5055638;28;20029;-80
2022/08/30 01:02:04;;;;;;;4.43;2.00;;;;;;;;;;5048549;28;20060;-74
2022/08/30 01:04:32;;;;;;;4.25;2.30;;;;;;;;;;5041555;28;20558;-75
2022/08/30 01:06:58;;;;;;;3.80;2.15;;;;;;;;;;5051676;28;20024;-74
2022/08/30 01:09:23;;;;;;;5.45;2.25;;;;;;;;;;5055610;28;20055;-79
2022/08/30 01:11:49;;;;;;;3.38;2.10;;;;;;;;;;5050534;28;20021;-81
2022/08/30 01:14:16;;;;;;;4.10;2.20;;;;;;;;;;5046369;28;20063;-79
2022/08/30 01:16:43;;;;;;;4.53;2.40;;;;;;;;;;5051860;28;20436;-79
2022/08/30 01:19:42;;;;;;;3.95;2.20;;;;;;;;;;5045494;28;20102;-74
2022/08/30 01:22:39;;;;;;;4.72;2.47;;;;;;;;;;5052000;28;20024;-75
2022/08/30 01:25:06;;;;;;;5.82;2.45;;;;;;;;;;5055235;28;20025;-79
2022/08/30 01:27:37;;;;;;;4.45;2.28;;;;;;;;;;5051751;28;20040;-76
2022/08/30 01:30:04;;;;;;;5.07;2.78;;;;;;;;;;5053802;28;20017;-79
2022/08/30 01:32:30;;;;;;;3.67;2.30;;;;;;;;;;5049281;28;20033;-78
2022/08/30 01:34:56;;;;;;;2.97;2.03;;;;;;;;;;5049077;28;20056;-76
2022/08/30 01:37:26;;;;;;;4.25;2.50;;;;;;;;;;5054801;28;20029;-76
2022/08/30 01:39:52;;;;;;;3.40;2.30;;;;;;;;;;5054785;28;20071;-76
2022/08/30 01:42:18;;;;;;;4.80;2.42;;;;;;;;;;5044474;28;20025;-77
2022/08/30 01:44:44;;;;;;;4.45;2.60;;;;;;;;;;5053134;28;20032;-81
2022/08/30 01:47:10;;;;;;;3.17;2.30;;;;;;;;;;5052128;28;20543;-79
2022/08/30 01:49:35;;;;;;;3.72;2.30;;;;;;;;;;5036436;28;20033;-81
2022/08/30 01:52:01;;;;;;;5.97;2.22;;;;;;;;;;5047885;28;20036;-80
2022/08/30 01:54:29;;;;;;;3.85;2.38;;;;;;;;;;5047974;28;20032;-79
2022/08/30 01:56:55;;;;;;;4.40;2.50;;;;;;;;;;5051385;28;20124;-74
2022/08/30 01:59:20;;;;;;;3.85;2.30;;;;;;;;;;5054056;28;20497;-79
2022/08/30 02:01:45;;;;;;;3.85;2.60;;;;;;;;;;5051906;28;20063;-76
2022/08/30 02:04:13;;;;;;;4.53;2.80;;;;;;;;;;5053298;28;20409;-81
2022/08/30 02:06:39;;;;;;;4.00;2.75;;;;;;;;;;5054396;28;20025;-74
2022/08/30 02:09:04;;;;;;;5.10;2.85;;;;;;;;;;5052547;28;20500;-76
2022/08/30 02:11:29;;;;;;;3.35;2.30;;;;;;;;;;5047611;28;20021;-74
2022/08/30 02:13:55;;;;;;;3.65;2.50;;;;;;;;;;5050083;28;20017;-74
2022/08/30 02:16:22;;;;;;;5.07;2.53;;;;;;;;;;5052889;28;20021;-79
2022/08/30 02:18:49;;;;;;;4.03;2.90;;;;;;;;;;5051516;28;20475;-75
2022/08/30 02:21:14;;;;;;;3.85;2.58;;;;;;;;;;5052408;28;20416;-76
2022/08/30 02:23:40;;;;;;;3.55;2.50;;;;;;;;;;5053124;28;20025;-81
2022/08/30 02:26:09;;;;;;;4.68;3.03;;;;;;;;;;5054067;28;20024;-79
2022/08/30 02:28:34;;;;;;;4.30;2.65;;;;;;;;;;5039339;28;20549;-75
2022/08/30 02:31:00;;;;;;;3.80;2.38;;;;;;;;;;5046368;28;20052;-75
2022/08/30 02:33:25;;;;;;;4.60;2.75;;;;;;;;;;5037434;28;20038;-76
2022/08/30 02:35:51;;;;;;;4.82;2.90;;;;;;;;;;5053731;28;20021;-81
2022/08/30 02:38:16;;;;;;;4.78;2.85;;;;;;;;;;5041406;28;20112;-79
2022/08/30 02:40:43;;;;;;;3.90;2.75;;;;;;;;;;5052546;28;20063;-76
2022/08/30 02:43:09;;;;;;;4.50;2.83;;;;;;;;;;5053135;28;20071;-76
2022/08/30 02:45:34;;;;;;;5.43;3.28;;;;;;;;;;5051970;28;20053;-74
2022/08/30 02:48:00;;;;;;;5.03;2.78;;;;;;;;;;5046727;28;20026;-80
2022/08/30 02:50:26;;;;;;;5.43;3.40;;;;;;;;;;5050542;28;20510;-79
2022/08/30 02:52:51;;;;;;;4.50;3.00;;;;;;;;;;5050806;28;20415;-76
2022/08/30 02:55:17;;;;;;;5.70;2.92;;;;;;;;;;5053481;28;20025;-81
2022/08/30 02:57:43;;;;;;;5.28;3.10;;;;;;;;;;5051373;28;20039;-81
2022/08/30 03:00:12;;;;;;;3.92;2.95;;;;;;;;;;5053386;28;20489;-81
2022/08/30 03:02:39;;;;;;;5.20;3.63;;;;;;;;;;5039165;28;20049;-75
2022/08/30 03:05:06;;;;;;;4.78;3.05;;;;;;;;;;5052185;28;20053;-81
2022/08/30 03:07:33;;;;;;;4.18;3.10;;;;;;;;;;5049805;28;20105;-76
2022/08/30 03:09:58;;;;;;;4.20;2.92;;;;;;;;;;5048804;28;20036;-79
2022/08/30 03:12:24;;;;;;;5.68;3.80;;;;;;;;;;5052344;28;20017;-79
2022/08/30 03:14:49;;;;;;;4.63;3.60;;;;;;;;;;5051243;28;20067;-81
2022/08/30 03:17:15;;;;;;;4.53;3.25;;;;;;;;;;5049511;28;20032;-74
2022/08/30 03:19:41;;;;;;;3.80;3.00;;;;;;;;;;5048273;28;20028;-76
2022/08/30 03:22:07;;;;;;;5.30;3.80;;;;;;;;;;5052454;28;20060;-76
2022/08/30 03:24:33;;;;;;;5.63;3.63;;;;;;;;;;5053022;28;20481;-76
2022/08/30 03:26:59;;;;;;;4.75;3.90;;;;;;;;;;5049233;28;20062;-79
2022/08/30 03:29:24;;;;;;;4.40;3.17;;;;;;;;;;5039805;28;20025;-74
2022/08/30 03:31:51;;;;;;;3.72;3.10;;;;;;;;;;5040622;28;20029;-79
2022/08/30 03:34:16;;;;;;;4.65;3.28;;;;;;;;;;5039318;28;20124;-76
2022/08/30 03:36:42;;;;;;;5.90;3.65;;;;;;;;;;5052109;28;20115;-79
2022/08/30 03:39:08;;;;;;;4.57;3.22;;;;;;;;;;5053051;28;20480;-74
2022/08/30 03:41:34;;;;;;;4.78;3.40;;;;;;;;;;5051225;28;20480;-75
2022/08/30 03:44:00;;;;;;;4.40;3.53;;;;;;;;;;5052897;28;20032;-74
2022/08/30 03:46:26;;;;;;;4.60;3.38;;;;;;;;;;5049621;28;20029;-76
2022/08/30 03:48:54;;;;;;;4.65;3.28;;;;;;;;;;5044342;28;20024;-79
2022/08/30 03:51:23;;;;;;;4.90;3.22;;;;;;;;;;5051233;28;20021;-81
2022/08/30 03:53:49;;;;;;;4.45;3.22;;;;;;;;;;5046598;28;20078;-75
2022/08/30 03:56:15;;;;;;;4.35;3.33;;;;;;;;;;5050739;28;20385;-76
2022/08/30 03:58:41;;;;;;;4.95;3.83;;;;;;;;;;5039139;28;20124;-79
2022/08/30 04:01:07;;;;;;;5.32;3.70;;;;;;;;;;5050183;28;20107;-81
2022/08/30 04:03:32;;;;;;;5.15;3.60;;;;;;;;;;5051992;28;20040;-81
2022/08/30 04:05:59;;;;;;;4.18;3.33;;;;;;;;;;5051439;28;20021;-76
2022/08/30 04:08:24;;;;;;;4.97;3.70;;;;;;;;;;5050178;28;20510;-78
2022/08/30 04:10:52;;;;;;;4.80;3.67;;;;;;;;;;5050542;28;20021;-81
2022/08/30 04:13:18;;;;;;;5.50;3.55;;;;;;;;;;5052301;28;20025;-76
2022/08/30 04:15:43;;;;;;;5.63;3.70;;;;;;;;;;5052358;28;20067;-76
2022/08/30 04:18:09;;;;;;;4.95;3.88;;;;;;;;;;5046259;28;20052;-76
2022/08/30 04:20:34;;;;;;;4.88;3.80;;;;;;;;;;5052463;28;20025;-79
2022/08/30 04:23:01;;;;;;;4.82;3.45;;;;;;;;;;5044580;28;20082;-76
2022/08/30 04:25:26;;;;;;;5.05;4.00;;;;;;;;;;5054983;28;20019;-79
2022/08/30 04:27:52;;;;;;;5.95;3.80;;;;;;;;;;5053582;28;20025;-76
2022/08/30 04:30:17;;;;;;;6.40;3.92;;;;;;;;;;5046709;28;20116;-75
2022/08/30 04:32:44;;;;;;;5.50;3.88;;;;;;;;;;5043334;28;20412;-79
2022/08/30 04:35:11;;;;;;;5.45;4.15;;;;;;;;;;5054941;28;20037;-74
2022/08/30 04:37:37;;;;;;;6.97;4.53;;;;;;;;;;5054639;28;20029;-76
2022/08/30 04:40:04;;;;;;;4.63;3.38;;;;;;;;;;5049762;28;20472;-81
2022/08/30 04:42:33;;;;;;;5.22;4.18;;;;;;;;;;5055163;28;20025;-82
2022/08/30 04:45:02;;;;;;;5.90;3.90;;;;;;;;;;5054641;28;20417;-76
2022/08/30 04:47:28;;;;;;;5.03;3.92;;;;;;;;;;5038562;28;20029;-79
2022/08/30 04:49:54;;;;;;;7.35;4.18;;;;;;;;;;5054313;28;20123;-76
2022/08/30 04:52:19;;;;;;;6.18;4.05;;;;;;;;;;5054572;28;20020;-75
2022/08/30 04:54:45;;;;;;;4.55;3.80;;;;;;;;;;5054373;28;20024;-81
2022/08/30 04:57:10;;;;;;;4.60;3.65;;;;;;;;;;5054731;28;20032;-81
2022/08/30 04:59:37;;;;;;;5.82;3.90;;;;;;;;;;5043568;28;20423;-81
2022/08/30 05:02:03;;;;;;;4.68;3.58;;;;;;;;;;5050943;28;20057;-75
2022/08/30 05:04:28;;;;;;;5.72;4.28;;;;;;;;;;5053287;28;20562;-76
2022/08/30 05:06:54;;;;;;;4.43;3.83;;;;;;;;;;5054682;28;20048;-81
2022/08/30 05:09:20;;;;;;;6.57;4.10;;;;;;;;;;5047494;28;20032;-74
2022/08/30 05:11:45;;;;;;;5.55;3.85;;;;;;;;;;5049269;28;20450;-76
2022/08/30 05:14:11;;;;;;;6.65;4.18;;;;;;;;;;5047692;28;20108;-81
2022/08/30 05:16:37;;;;;;;5.22;4.05;;;;;;;;;;5052259;28;20029;-76
2022/08/30 05:19:03;;;;;;;6.30;4.55;;;;;;;;;;5041200;28;20040;-75
2022/08/30 05:21:28;;;;;;;9.07;4.60;;;;;;;;;;5050846;28;20029;-76
2022/08/30 05:23:55;;;;;;;5.68;4.22;;;;;;;;;;5054070;28;20477;-79
2022/08/30 05:26:27;;;;;;;6.03;3.70;;;;;;;;;;5054693;28;20024;-75
2022/08/30 05:28:53;;;;;;;5.20;3.83;;;;;;;;;;5052139;28;20045;-79
2022/08/30 05:31:22;;;;;;;6.22;4.00;;;;;;;;;;5044297;28;20366;-75
2022/08/30 05:33:49;;;;;;;4.85;3.70;;;;;;;;;;5043634;28;20041;-74
2022/08/30 05:36:17;;;;;;;5.80;4.13;;;;;;;;;;5045071;28;20032;-80
2022/08/30 05:38:43;;;;;;;5.50;4.07;;;;;;;;;;5051776;28;20086;-79
2022/08/30 05:41:09;;;;;;;5.82;3.90;;;;;;;;;;5042792;28;20037;-74
2022/08/30 05:43:35;;;;;;;6.45;3.80;;;;;;;;;;5044223;28;20029;-80
2022/08/30 05:46:06;;;;;;;5.45;4.25;;;;;;;;;;5054748;28;20036;-81
2022/08/30 05:48:33;;;;;;;6.63;4.20;;;;;;;;;;5045172;28;20067;-76
2022/08/30 05:51:20;;;;;;;5.57;4.22;;;;;;;;;;5053326;28;20033;-76
2022/08/30 05:53:48;;;;;;;5.30;3.63;;;;;;;;;;5042884;28;20024;-76
2022/08/30 05:56:16;;;;;;;5.00;3.75;;;;;;;;;;5054237;28;20020;-75
2022/08/30 05:58:42;;;;;;;5.15;3.78;;;;;;;;;;5041848;28;20401;-80
2022/08/30 06:01:18;;;;;;;6.45;4.28;;;;;;;;;;5054781;28;20107;-80
2022/08/30 06:03:44;;;;;;;5.07;3.50;;;;;;;;;;5052538;28;20404;-74
2022/08/30 06:06:09;;;;;;;8.32;3.60;;;;;;;;;;5054017;28;20021;-79
2022/08/30 06:08:34;;;;;;;5.55;3.90;;;;;;;;;;5052505;28;20056;-76
2022/08/30 06:11:00;;;;;;;7.05;4.05;;;;;;;;;;5051120;28;20059;-76
2022/08/30 06:13:25;;;;;;;4.65;3.55;;;;;;;;;;5054181;28;20477;-79
2022/08/30 06:15:51;;;;;;;7.07;3.90;;;;;;;;;;5052973;28;20381;-76
2022/08/30 06:18:17;;;;;;;6.75;4.18;;;;;;;;;;5046907;28;20111;-81
2022/08/30 06:20:46;;;;;;;5.60;3.97;;;;;;;;;;5054212;28;20029;-79
2022/08/30 06:23:12;;;;;;;4.90;3.58;;;;;;;;;;5054081;28;20048;-79
2022/08/30 06:25:38;;;;;;;4.20;3.35;;;;;;;;;;5054082;28;20029;-76
2022/08/30 06:28:05;;;;;;;4.13;3.35;;;;;;;;;;5052568;28;20546;-74
2022/08/30 06:30:32;;;;;;;5.07;3.30;;;;;;;;;;5047080;28;20513;-80
2022/08/30 06:32:58;;;;;;;6.15;3.78;;;;;;;;;;5048429;28;20025;-77
2022/08/30 06:35:25;;;;;;;4.43;3.80;;;;;;;;;;5046231;28;20061;-76
2022/08/30 06:37:50;;;;;;;4.97;3.28;;;;;;;;;;5050575;28;20492;-75
2022/08/30 06:40:17;;;;;;;4.53;3.45;;;;;;;;;;5052470;28;20120;-76
2022/08/30 06:42:42;;;;;;;4.82;3.28;;;;;;;;;;5043388;28;20164;-79
2022/08/30 06:45:08;;;;;;;4.53;3.40;;;;;;;;;;5052344;28;20453;-81
2022/08/30 06:47:34;;;;;;;5.68;3.67;;;;;;;;;;5051842;28;20033;-75
2022/08/30 06:49:59;;;;;;;6.03;3.80;;;;;;;;;;5052524;28;20061;-81
2022/08/30 06:52:25;;;;;;;4.47;3.47;;;;;;;;;;5052942;28;20012;-80
2022/08/30 06:54:50;;;;;;;4.32;3.33;;;;;;;;;;5035583;28;20452;-81
2022/08/30 06:57:16;;;;;;;4.70;3.35;;;;;;;;;;5051526;28;20020;-74
2022/08/30 06:59:41;;;;;;;6.32;3.70;;;;;;;;;;5051190;28;20043;-76
2022/08/30 07:02:07;;;;;;;6.25;4.00;;;;;;;;;;5048550;28;20048;-80
2022/08/30 07:04:32;;;;;;;4.50;3.33;;;;;;;;;;5045452;28;20079;-76
2022/08/30 07:06:58;;;;;;;5.65;3.40;;;;;;;;;;5051209;28;20021;-74
2022/08/30 07:09:23;;;;;;;5.07;3.15;;;;;;;;;;5049142;28;20032;-76
2022/08/30 07:11:50;;;;;;;7.28;3.10;;;;;;;;;;5046933;28;20030;-76
2022/08/30 07:14:16;;;;;;;5.30;2.90;;;;;;;;;;5046761;28;20040;-74
2022/08/30 07:16:42;;;;;;;7.50;3.15;;;;;;;;;;5051912;28;20021;-76
2022/08/30 07:19:08;;;;;;;4.45;2.95;;;;;;;;;;5047339;28;20103;-80
2022/08/30 07:21:35;;;;;;;3.95;2.42;;;;;;;;;;5051041;28;20045;-76
2022/08/30 07:24:01;;;;;;;6.40;2.60;;;;;;;;;;5052014;28;20485;-74
2022/08/30 07:26:48;;;;;;;4.65;2.88;;;;;;;;;;5049608;28;20013;-81
2022/08/30 07:29:15;;;;;;;5.40;2.33;;;;;;;;;;5041627;28;20029;-76
2022/08/30 07:31:40;;;;;;;4.43;3.10;;;;;;;;;;5047804;28;20078;-75
2022/08/30 07:34:07;;;;;;;4.25;2.70;;;;;;;;;;5047869;28;20041;-75
2022/08/30 07:36:34;;;;;;;5.45;2.72;;;;;;;;;;5051178;28;20036;-75
2022/08/30 07:39:00;;;;;;;5.57;2.47;;;;;;;;;;5052694;28;20036;-76
2022/08/30 07:41:29;;;;;;;4.00;2.38;;;;;;;;;;5048049;28;20429;-76
2022/08/30 07:43:56;;;;;;;5.72;2.33;;;;;;;;;;5040363;28;20047;-81
2022/08/30 07:46:22;;;;;;;5.20;2.40;;;;;;;;;;5051382;28;20043;-81
2022/08/30 07:48:48;;;;;;;4.78;2.25;;;;;;;;;;5051510;28;20025;-80
2022/08/30 07:51:19;;;;;;;2.75;2.00;;;;;;;;;;5051972;28;20060;-80
2022/08/30 07:53:45;;;;;;;6.65;1.75;;;;;;;;;;5049573;28;20103;-76
2022/08/30 07:56:11;;;;;;;3.05;1.80;;;;;;;;;;5052577;28;20505;-76
2022/08/30 07:58:37;;;;;;;2.80;1.90;;;;;;;;;;5050223;28;20029;-80
2022/08/30 08:01:08;;;;;;;3.75;1.90;;;;;;;;;;5052753;28;20470;-80
2022/08/30 08:03:35;;;;;;;3.78;1.77;;;;;;;;;;5046023;28;20032;-80
2022/08/30 08:06:04;;;;;;;4.68;2.00;;;;;;;;;;5052364;28;20491;-79
2022/08/30 08:08:30;;;;;;;2.70;1.75;;;;;;;;;;5036148;28;20028;-80
2022/08/30 08:10:57;;;;;;;3.03;2.00;;;;;;;;;;5051017;28;20083;-80
2022/08/30 08:13:23;;;;;;;2.65;1.80;;;;;;;;;;5039734;28;20051;-76
2022/08/30 08:15:52;;;;;;;3.92;2.05;;;;;;;;;;5052213;28;20025;-75
2022/08/30 08:18:17;;;;;;;3.50;1.70;;;;;;;;;;5044791;28;20031;-80
2022/08/30 08:20:43;;;;;;;2.80;1.60;;;;;;;;;;5051198;28;20511;-81
2022/08/30 08:23:08;;;;;;;3.70;1.80;;;;;;;;;;5045686;28;20504;-80
2022/08/30 08:25:39;;;;;;;2.83;1.50;;;;;;;;;;5052409;28;20029;-76
2022/08/30 08:28:04;;;;;;;3.90;1.70;;;;;;;;;;5044332;28;20060;-75
2022/08/30 08:30:32;;;;;;;3.67;1.58;;;;;;;;;;5050088;28;20425;-81
2022/08/30 08:32:58;;;;;;;5.18;1.50;;;;;;;;;;5050785;28;20469;-81
2022/08/30 08:35:23;;;;;;;5.75;1.65;;;;;;;;;;5052057;28;20021;-76
2022/08/30 08:37:48;;;;;;;2.15;1.55;;;;;;;;;;5046695;28;20048;-82
2022/08/30 08:40:18;;;;;;;3.08;1.60;;;;;;;;;;5052065;28;20025;-75
2022/08/30 08:43:01;;;;;;;2.95;1.52;;;;;;;;;;5050406;28;20067;-75
2022/08/30 08:45:33;;;;;;;3.08;1.80;;;;;;;;;;5050585;28;20040;-80
2022/08/30 08:48:25;;;;;;;2.80;1.48;;;;;;;;;;5036935;28;20021;-81
2022/08/30 08:53:35;;;;;;;5.32;1.73;;;;;;;;;;5050135;28;20036;-82
2022/08/30 08:56:10;;;;;;;3.85;1.38;;;;;;;;;;5051307;28;20056;-81
2022/08/30 08:58:51;;;;;;;5.85;1.60;;;;;;;;;;5049052;28;20033;-75
2022/08/30 09:01:20;;;;;;;2.67;1.42;;;;;;;;;;5050030;28;20027;-76
2022/08/30 09:03:46;;;;;;;5.63;1.40;;;;;;;;;;5050498;28;20033;-81
2022/08/30 09:06:27;;;;;;;3.40;1.60;;;;;;;;;;5049992;28;20071;-76
2022/08/30 09:08:54;;;;;;;4.55;1.23;;;;;;;;;;5038211;28;20051;-74
2022/08/30 09:11:26;;;;;;;2.15;1.20;;;;;;;;;;5052533;28;20461;-81
2022/08/30 09:13:53;;;;;;;2.20;1.30;;;;;;;;;;5053358;28;20021;-75
2022/08/30 09:16:45;;;;;;;2.13;1.10;;;;;;;;;;5053302;28;20024;-80
2022/08/30 09:19:11;;;;;;;4.10;1.20;;;;;;;;;;5049386;28;20025;-76
2022/08/30 09:21:36;;;;;;;3.03;1.15;;;;;;;;;;5053523;28;20082;-76
2022/08/30 09:24:04;;;;;;;1.88;1.10;;;;;;;;;;5055270;28;20021;-81
2022/08/30 09:26:38;;;;;;;4.32;1.30;;;;;;;;;;5054731;28;20054;-81
2022/08/30 09:29:14;;;;;;;2.80;1.23;;;;;;;;;;5053182;28;20048;-82
2022/08/30 09:31:52;;;;;;;2.28;1.23;;;;;;;;;;5053763;28;20025;-76
2022/08/30 09:34:21;;;;;;;2.95;1.20;;;;;;;;;;5050554;28;20049;-77
2022/08/30 09:36:50;;;;;;;2.70;1.20;;;;;;;;;;5055060;28;20021;-75
2022/08/30 09:39:32;;;;;;;3.08;1.55;;;;;;;;;;5053684;28;20020;-76
2022/08/30 09:42:21;;;;;;;3.33;1.10;;;;;;;;;;5040901;28;20027;-81
2022/08/30 09:44:47;;;;;;;2.05;1.00;;;;;;;;;;5053512;28;20676;-82
2022/08/30 09:47:28;;;;;;;2.47;1.23;;;;;;;;;;5054962;28;20104;-82
2022/08/30 09:50:03;;;;;;;4.00;1.20;;;;;;;;;;5051587;28;20041;-75
2022/08/30 09:52:53;;;;;;;2.90;1.05;;;;;;;;;;5054724;28;20044;-81
2022/08/30 09:55:48;;;;;;;4.60;1.30;;;;;;;;;;5048998;28;20025;-81
2022/08/30 09:58:25;;;;;;;1.85;1.10;;;;;;;;;;5054670;28;20025;-76
2022/08/30 10:01:09;;;;;;;2.97;1.30;;;;;;;;;;5054757;28;20477;-80
2022/08/30 10:04:08;;;;;;;3.00;1.10;;;;;;;;;;5053059;28;20411;-81
2022/08/30 10:06:44;;;;;;;4.32;1.35;;;;;;;;;;5048591;28;20040;-81
2022/08/30 10:09:22;;;;;;;2.38;1.10;;;;;;;;;;5050465;28;20032;-76
2022/08/30 10:12:19;;;;;;;2.38;1.13;;;;;;;;;;5053186;28;20033;-76
2022/08/30 10:14:56;;;;;;;5.75;1.25;;;;;;;;;;5044484;28;20033;-82
2022/08/30 10:17:40;;;;;;;2.75;1.10;;;;;;;;;;5054100;28;20029;-76
2022/08/30 10:20:32;;;;;;;4.32;1.38;;;;;;;;;;5049886;28;20032;-81
2022/08/30 10:23:08;;;;;;;2.97;1.40;;;;;;;;;;5049289;28;20021;-81
2022/08/30 10:25:38;;;;;;;2.00;1.17;;;;;;;;;;5052097;28;20473;-75
2022/08/30 10:28:15;;;;;;;3.05;1.23;;;;;;;;;;5053432;28;20084;-75
2022/08/30 10:30:51;;;;;;;2.92;1.15;;;;;;;;;;5052117;28;20025;-76
2022/08/30 10:33:21;;;;;;;3.75;1.40;;;;;;;;;;5053484;28;20045;-81
2022/08/30 10:35:51;;;;;;;4.90;1.40;;;;;;;;;;5052542;28;20021;-76
2022/08/30 10:38:41;;;;;;;3.22;1.10;;;;;;;;;;5050659;28;20024;-81
2022/08/30 10:41:27;;;;;;;2.15;1.10;;;;;;;;;;5052487;28;20159;-75
2022/08/30 10:44:10;;;;;;;3.58;1.38;;;;;;;;;;5052728;28;20036;-75
2022/08/30 10:46:39;;;;;;;;;;;;;;;;;;5046833;28;20020;-81
2022/08/30 10:49:13;;;;;;;1.25;0.90;;;;;;;;;;5045571;28;19928;-81
2022/08/30 10:51:49;;;;;;;3.55;1.08;;;;;;;;;;5041818;28;20044;-75
2022/08/30 10:54:47;;;;;;;2.97;1.30;;;;;;;;;;5053623;28;20052;-81
2022/08/30 10:57:13;;;;;;;3.58;1.00;;;;;;;;;;5045094;28;20547;-75
2022/08/30 10:59:47;;;;;;;2.50;1.10;;;;;;;;;;5052066;28;20389;-81
2022/08/30 11:02:48;;;;;;;2.67;1.20;;;;;;;;;;5050200;28;20467;-81
2022/08/30 11:05:40;;;;;;;1.75;0.90;;;;;;;;;;5049905;28;20035;-75
2022/08/30 11:08:17;;;;;;;3.25;1.27;;;;;;;;;;5049084;28;20580;-75
2022/08/30 11:11:04;;;;;;;2.45;1.20;;;;;;;;;;5046899;28;20064;-81
2022/08/30 11:13:34;;;;;;;1.77;1.23;;;;;;;;;;5038074;28;20053;-77
2022/08/30 11:16:02;;;;;;;3.55;1.15;;;;;;;;;;5042506;28;20025;-80
2022/08/30 11:18:41;;;;;;;2.88;1.20;;;;;;;;;;5043911;28;20112;-77
2022/08/30 11:21:30;;;;;;;2.33;1.35;;;;;;;;;;5048996;28;20016;-80
2022/08/30 11:24:07;;;;;;;2.03;1.20;;;;;;;;;;5051852;28;20028;-76
2022/08/30 11:26:48;;;;;;;3.22;1.00;;;;;;;;;;5052811;28;20021;-77
2022/08/30 11:29:29;;;;;;;2.50;0.95;;;;;;;;;;5051350;28;20090;-76
2022/08/30 11:32:17;;;;;;;3.05;1.23;;;;;;;;;;5043891;28;20041;-81
2022/08/30 11:34:45;;;;;;;2.28;1.00;;;;;;;;;;5045737;28;20049;-76
2022/08/30 11:37:36;;;;;;;2.42;1.10;;;;;;;;;;5045147;28;20078;-76
2022/08/30 11:40:32;;;;;;;2.45;1.00;;;;;;;;;;5046069;28;20028;-76
2022/08/30 11:43:36;;;;;;;2.17;1.30;;;;;;;;;;5051060;28;20040;-75
2022/08/30 11:46:22;;;;;;;2.78;1.17;;;;;;;;;;5047247;28;20162;-76
2022/08/30 11:48:51;;;;;;;2.28;0.90;;;;;;;;;;5037968;28;20029;-82
2022/08/30 11:51:51;;;;;;;2.58;1.10;;;;;;;;;;5046093;28;20025;-75
2022/08/30 11:54:41;;;;;;;3.97;1.15;;;;;;;;;;5041950;28;20030;-81
2022/08/30 11:57:35;;;;;;;1.75;1.05;;;;;;;;;;5045708;28;20112;-75
2022/08/30 12:00:25;;;;;;;2.15;1.10;;;;;;;;;;5052724;28;20021;-75
2022/08/30 12:02:57;;;;;;;2.00;0.90;;;;;;;;;;5043775;28;20507;-76
2022/08/30 12:05:57;;;;;;;2.45;0.90;;;;;;;;;;5050895;28;20473;-82
2022/08/30 12:08:34;;;;;;;2.83;0.90;;;;;;;;;;5049960;28;20166;-81
2022/08/30 12:11:09;;;;;;;3.75;1.13;;;;;;;;;;5052574;28;20381;-76
2022/08/30 12:13:37;;;;;;;2.38;0.90;;;;;;;;;;5047669;28;20425;-77
2022/08/30 12:16:08;;;;;;;3.35;0.90;;;;;;;;;;5052452;28;20051;-81
2022/08/30 12:18:42;;;;;;;2.20;1.00;;;;;;;;;;5051597;28;20028;-76
2022/08/30 12:21:19;;;;;;;1.45;0.77;;;;;;;;;;5051066;28;20021;-80
2022/08/30 12:23:59;;;;;;;2.97;1.00;;;;;;;;;;5050710;28;20033;-81
2022/08/30 12:26:25;;;;;;;3.25;1.15;;;;;;;;;;5051179;28;20370;-81
2022/08/30 12:29:18;;;;;;;1.95;1.10;;;;;;;;;;5046259;28;20032;-75
2022/08/30 12:31:59;;;;;;;1.70;0.90;;;;;;;;;;5051055;28;20151;-75
2022/08/30 12:34:35;;;;;;;3.50;1.20;;;;;;;;;;5041071;28;20049;-80
2022/08/30 12:37:24;;;;;;;3.33;1.10;;;;;;;;;;5039993;28;20478;-77
2022/08/30 12:40:08;;;;;;;3.72;1.27;;;;;;;;;;5044471;28;20045;-75
2022/08/30 12:42:48;;;;;;;2.30;0.98;;;;;;;;;;5050343;28;20397;-81
2022/08/30 12:45:17;;;;;;;1.65;0.90;;;;;;;;;;5042940;28;20016;-76
2022/08/30 12:48:00;;;;;;;3.45;1.00;;;;;;;;;;5052059;28;20033;-81
2022/08/30 12:50:27;;;;;;;;;;;;;;;;;;5053798;28;20029;-76
2022/08/30 12:53:07;;;;;;;3.22;1.15;;;;;;;;;;5054644;28;20361;-75
2022/08/30 12:55:47;;;;;;;1.65;0.98;;;;;;;;;;5050367;28;20017;-75
2022/08/30 12:58:13;;;;;;;2.80;1.00;;;;;;;;;;5054765;28;20544;-81
2022/08/30 13:00:41;;;;;;;2.03;1.05;;;;;;;;;;5040880;28;20163;-81
2022/08/30 13:03:22;;;;;;;2.13;1.10;;;;;;;;;;5042984;28;20025;-76
2022/08/30 13:05:49;;;;;;;4.90;1.10;;;;;;;;;;5050336;28;20518;-76
2022/08/30 13:08:41;;;;;;;2.65;0.82;;;;;;;;;;5054180;28;20052;-81
2022/08/30 13:11:21;;;;;;;2.20;1.00;;;;;;;;;;5051155;28;20025;-76
2022/08/30 13:13:50;;;;;;;2.35;0.82;;;;;;;;;;5051975;28;20064;-75
2022/08/30 13:16:19;;;;;;;1.48;0.90;;;;;;;;;;5040744;28;20034;-81
2022/08/30 13:18:46;;;;;;;2.90;1.13;;;;;;;;;;5050892;28;20026;-80
2022/08/30 13:21:23;;;;;;;1.92;1.20;;;;;;;;;;5048289;28;20020;-81
2022/08/30 13:24:15;;;;;;;2.45;1.20;;;;;;;;;;5054201;28;20464;-76
2022/08/30 13:26:41;;;;;;;3.55;1.13;;;;;;;;;;5054997;28;20492;-81
2022/08/30 13:29:12;;;;;;;2.47;1.00;;;;;;;;;;5053829;28;20063;-81
2022/08/30 13:31:38;;;;;;;3.88;1.17;;;;;;;;;;5047944;28;20028;-81
2022/08/30 13:34:03;;;;;;;4.82;1.20;;;;;;;;;;5052355;28;20123;-76
2022/08/30 13:36:34;;;;;;;2.58;1.10;;;;;;;;;;5053797;28;20037;-77
2022/08/30 13:39:00;;;;;;;2.25;1.00;;;;;;;;;;5047457;28;20091;-75
2022/08/30 13:41:26;;;;;;;2.28;1.00;;;;;;;;;;5052296;28;20116;-81
2022/08/30 13:43:52;;;;;;;2.60;1.00;;;;;;;;;;5049356;28;20028;-82
2022/08/30 13:46:21;;;;;;;2.83;1.00;;;;;;;;;;5054758;28;20416;-82
2022/08/30 13:48:48;;;;;;;2.95;1.00;;;;;;;;;;5053355;28;20017;-81
2022/08/30 13:51:13;;;;;;;2.65;1.02;;;;;;;;;;5054940;28;20028;-77
2022/08/30 13:53:39;;;;;;;1.92;1.00;;;;;;;;;;5052810;28;20025;-81
2022/08/30 13:56:05;;;;;;;2.83;1.10;;;;;;;;;;5052617;28;20029;-76
2022/08/30 13:58:31;;;;;;;3.83;1.02;;;;;;;;;;5052190;28;20021;-75
2022/08/30 14:00:57;;;;;;;1.42;0.90;;;;;;;;;;5053052;28;20389;-81
2022/08/30 14:03:23;;;;;;;4.10;1.30;;;;;;;;;;5052984;28;20023;-76
2022/08/30 14:05:49;;;;;;;3.90;1.20;;;;;;;;;;5053967;28;20465;-81
2022/08/30 14:08:23;;;;;;;3.22;1.25;;;;;;;;;;5047811;28;20044;-81
2022/08/30 14:10:52;;;;;;;3.35;1.20;;;;;;;;;;5049444;28;20029;-81
2022/08/30 14:13:17;;;;;;;2.35;1.00;;;;;;;;;;5054602;28;20036;-80
2022/08/30 14:15:43;;;;;;;4.53;1.02;;;;;;;;;;5053142;28;20036;-81
2022/08/30 14:18:08;;;;;;;1.35;0.85;;;;;;;;;;5053093;28;20025;-74
2022/08/30 14:20:34;;;;;;;3.22;0.98;;;;;;;;;;5053020;28;20025;-81
2022/08/30 14:23:00;;;;;;;2.20;1.00;;;;;;;;;;5051352;28;20025;-75
2022/08/30 14:25:27;;;;;;;2.28;0.93;;;;;;;;;;5046421;28;20019;-76
2022/08/30 14:27:56;;;;;;;3.33;0.98;;;;;;;;;;5052972;28;20025;-81
2022/08/30 14:30:22;;;;;;;2.03;1.00;;;;;;;;;;5036402;28;20044;-75
2022/08/30 14:32:49;;;;;;;2.17;1.00;;;;;;;;;;5052720;28;20032;-80
2022/08/30 14:35:17;;;;;;;2.75;0.90;;;;;;;;;;5041908;28;20028;-81
2022/08/30 14:37:43;;;;;;;4.88;0.90;;;;;;;;;;5046443;28;20025;-75
2022/08/30 14:40:09;;;;;;;3.75;1.10;;;;;;;;;;5051928;28;20039;-76
2022/08/30 14:42:35;;;;;;;4.35;1.52;;;;;;;;;;5053929;28;20103;-80
2022/08/30 14:45:00;;;;;;;4.20;0.98;;;;;;;;;;5047981;28;20370;-81
2022/08/30 14:47:25;;;;;;;3.83;1.00;;;;;;;;;;5053840;28;20020;-81
2022/08/30 14:49:52;;;;;;;1.60;0.80;;;;;;;;;;5053690;28;20029;-76
2022/08/30 14:52:18;;;;;;;2.30;0.90;;;;;;;;;;5052408;28;20024;-75
2022/08/30 14:54:43;;;;;;;2.75;1.10;;;;;;;;;;5047321;28;20029;-76
2022/08/30 14:57:08;;;;;;;2.38;1.20;;;;;;;;;;5053599;28;20029;-75
2022/08/30 14:59:34;;;;;;;2.65;1.20;;;;;;;;;;5051957;28;20021;-81
2022/08/30 15:01:59;;;;;;;2.33;1.02;;;;;;;;;;5053820;28;20100;-75
2022/08/30 15:04:25;;;;;;;2.28;1.00;;;;;;;;;;5049280;28;20029;-80
2022/08/30 15:06:51;;;;;;;2.25;0.90;;;;;;;;;;5052079;28;20489;-81